sensor_id;sensor_type;location;lat;lon;timestamp;P1;durP1;ratioP1;P2;durP2;ratioP2
27895;SDS011;15241;48.374;10.876;2023-03-14T00:02:52;0.30;;;0.30;;
27895;SDS011;15241;48.374;10.876;2023-03-14T00:07:52;1.15;;;0.30;;
27895;SDS011;15241;48.374;10.876;2023-03-14T00:12:51;0.30;;;0.30;;
27895;SDS011;15241;48.374;10.876;2023-03-14T00:17:50;1.20;;;0.30;;
27895;SDS011;15241;48.374;10.876;2023-03-14T00:22:49;0.72;;;0.40;;
27895;SDS011;15241;48.374;10.876;2023-03-14T00:27:51;1.47;;;0.20;;
27895;SDS011;15241;48.374;10.876;2023-03-14T00:32:50;0.23;;;0.20;;
27895;SDS011;15241;48.374;10.876;2023-03-14T00:37:49;0.30;;;0.30;;
27895;SDS011;15241;48.374;10.876;2023-03-14T00:42:49;0.47;;;0.30;;
27895;SDS011;15241;48.374;10.876;2023-03-14T00:47:56;0.37;;;0.28;;
27895;SDS011;15241;48.374;10.876;2023-03-14T00:52:56;0.30;;;0.30;;
27895;SDS011;15241;48.374;10.876;2023-03-14T00:57:55;0.53;;;0.47;;
27895;SDS011;15241;48.374;10.876;2023-03-14T01:02:54;0.30;;;0.30;;
27895;SDS011;15241;48.374;10.876;2023-03-14T01:07:53;1.22;;;0.23;;
27895;SDS011;15241;48.374;10.876;2023-03-14T01:12:52;1.30;;;0.30;;
27895;SDS011;15241;48.374;10.876;2023-03-14T01:17:51;0.80;;;0.20;;
27895;SDS011;15241;48.374;10.876;2023-03-14T01:22:50;0.75;;;0.23;;
27895;SDS011;15241;48.374;10.876;2023-03-14T01:27:49;1.20;;;0.20;;
27895;SDS011;15241;48.374;10.876;2023-03-14T01:32:48;0.50;;;0.23;;
27895;SDS011;15241;48.374;10.876;2023-03-14T01:37:47;2.02;;;0.30;;
27895;SDS011;15241;48.374;10.876;2023-03-14T01:42:46;1.47;;;0.20;;
27895;SDS011;15241;48.374;10.876;2023-03-14T01:47:52;1.05;;;0.40;;
27895;SDS011;15241;48.374;10.876;2023-03-14T01:52:51;0.40;;;0.20;;
27895;SDS011;15241;48.374;10.876;2023-03-14T01:57:50;0.53;;;0.23;;
27895;SDS011;15241;48.374;10.876;2023-03-14T02:02:53;0.25;;;0.23;;
27895;SDS011;15241;48.374;10.876;2023-03-14T02:07:55;0.10;;;0.10;;
27895;SDS011;15241;48.374;10.876;2023-03-14T02:12:55;0.28;;;0.10;;
27895;SDS011;15241;48.374;10.876;2023-03-14T02:17:57;0.10;;;0.10;;
27895;SDS011;15241;48.374;10.876;2023-03-14T02:22:57;0.30;;;0.20;;
27895;SDS011;15241;48.374;10.876;2023-03-14T02:27:56;0.33;;;0.28;;
27895;SDS011;15241;48.374;10.876;2023-03-14T02:32:59;0.62;;;0.30;;
27895;SDS011;15241;48.374;10.876;2023-03-14T02:38:02;0.72;;;0.20;;
27895;SDS011;15241;48.374;10.876;2023-03-14T02:43:03;2.40;;;0.20;;
27895;SDS011;15241;48.374;10.876;2023-03-14T02:48:03;0.15;;;0.15;;
27895;SDS011;15241;48.374;10.876;2023-03-14T02:53:04;0.20;;;0.20;;
27895;SDS011;15241;48.374;10.876;2023-03-14T02:58:03;0.33;;;0.23;;
27895;SDS011;15241;48.374;10.876;2023-03-14T03:03:02;1.65;;;0.37;;
27895;SDS011;15241;48.374;10.876;2023-03-14T03:08:01;0.23;;;0.23;;
27895;SDS011;15241;48.374;10.876;2023-03-14T03:13:04;0.75;;;0.13;;
27895;SDS011;15241;48.374;10.876;2023-03-14T03:18:05;0.30;;;0.20;;
27895;SDS011;15241;48.374;10.876;2023-03-14T03:23:04;0.13;;;0.13;;
27895;SDS011;15241;48.374;10.876;2023-03-14T03:28:03;0.10;;;0.10;;
27895;SDS011;15241;48.374;10.876;2023-03-14T03:33:02;2.92;;;0.42;;
27895;SDS011;15241;48.374;10.876;2023-03-14T03:38:01;0.28;;;0.20;;
27895;SDS011;15241;48.374;10.876;2023-03-14T03:43:00;0.20;;;0.20;;
27895;SDS011;15241;48.374;10.876;2023-03-14T03:47:59;0.10;;;0.10;;
27895;SDS011;15241;48.374;10.876;2023-03-14T03:52:58;1.45;;;0.20;;
27895;SDS011;15241;48.374;10.876;2023-03-14T03:57:57;0.10;;;0.10;;
27895;SDS011;15241;48.374;10.876;2023-03-14T04:02:57;0.03;;;0.03;;
27895;SDS011;15241;48.374;10.876;2023-03-14T04:07:56;0.17;;;0.17;;
27895;SDS011;15241;48.374;10.876;2023-03-14T04:12:55;0.20;;;0.20;;
27895;SDS011;15241;48.374;10.876;2023-03-14T04:17:56;0.40;;;0.30;;
27895;SDS011;15241;48.374;10.876;2023-03-14T04:22:55;0.20;;;0.20;;
27895;SDS011;15241;48.374;10.876;2023-03-14T04:27:54;0.20;;;0.20;;
27895;SDS011;15241;48.374;10.876;2023-03-14T04:33:02;0.98;;;0.30;;
27895;SDS011;15241;48.374;10.876;2023-03-14T04:38:01;0.75;;;0.35;;
27895;SDS011;15241;48.374;10.876;2023-03-14T04:43:00;0.17;;;0.17;;
27895;SDS011;15241;48.374;10.876;2023-03-14T04:47:59;1.07;;;0.60;;
27895;SDS011;15241;48.374;10.876;2023-03-14T04:52:58;0.55;;;0.23;;
27895;SDS011;15241;48.374;10.876;2023-03-14T04:57:57;2.83;;;0.80;;
27895;SDS011;15241;48.374;10.876;2023-03-14T05:02:56;0.98;;;0.37;;
27895;SDS011;15241;48.374;10.876;2023-03-14T05:07:55;0.25;;;0.20;;
27895;SDS011;15241;48.374;10.876;2023-03-14T05:12:53;0.20;;;0.20;;
27895;SDS011;15241;48.374;10.876;2023-03-14T05:17:53;0.30;;;0.30;;
27895;SDS011;15241;48.374;10.876;2023-03-14T05:22:52;0.10;;;0.10;;
27895;SDS011;15241;48.374;10.876;2023-03-14T05:27:51;1.20;;;0.10;;
27895;SDS011;15241;48.374;10.876;2023-03-14T05:32:52;0.20;;;0.20;;
27895;SDS011;15241;48.374;10.876;2023-03-14T05:37:51;0.55;;;0.40;;
27895;SDS011;15241;48.374;10.876;2023-03-14T05:42:50;0.10;;;0.10;;
27895;SDS011;15241;48.374;10.876;2023-03-14T05:47:49;0.55;;;0.33;;
27895;SDS011;15241;48.374;10.876;2023-03-14T05:52:48;0.30;;;0.20;;
27895;SDS011;15241;48.374;10.876;2023-03-14T05:57:47;0.42;;;0.30;;
27895;SDS011;15241;48.374;10.876;2023-03-14T06:02:46;0.45;;;0.20;;
27895;SDS011;15241;48.374;10.876;2023-03-14T06:07:45;0.50;;;0.30;;
27895;SDS011;15241;48.374;10.876;2023-03-14T06:12:44;0.35;;;0.20;;
27895;SDS011;15241;48.374;10.876;2023-03-14T06:17:43;0.82;;;0.50;;
27895;SDS011;15241;48.374;10.876;2023-03-14T06:22:42;0.20;;;0.20;;
27895;SDS011;15241;48.374;10.876;2023-03-14T06:27:41;0.45;;;0.28;;
27895;SDS011;15241;48.374;10.876;2023-03-14T06:32:43;2.42;;;0.20;;
27895;SDS011;15241;48.374;10.876;2023-03-14T06:37:42;0.72;;;0.20;;
27895;SDS011;15241;48.374;10.876;2023-03-14T06:42:41;2.50;;;0.30;;
27895;SDS011;15241;48.374;10.876;2023-03-14T06:47:40;0.37;;;0.33;;
27895;SDS011;15241;48.374;10.876;2023-03-14T06:52:39;0.78;;;0.78;;
27895;SDS011;15241;48.374;10.876;2023-03-14T06:57:38;0.53;;;0.30;;
27895;SDS011;15241;48.374;10.876;2023-03-14T07:02:37;0.17;;;0.13;;
27895;SDS011;15241;48.374;10.876;2023-03-14T07:07:38;2.52;;;0.28;;
27895;SDS011;15241;48.374;10.876;2023-03-14T07:12:37;1.22;;;0.50;;
27895;SDS011;15241;48.374;10.876;2023-03-14T07:17:36;0.68;;;0.30;;
27895;SDS011;15241;48.374;10.876;2023-03-14T07:22:35;0.65;;;0.50;;
27895;SDS011;15241;48.374;10.876;2023-03-14T07:27:34;1.07;;;0.50;;
27895;SDS011;15241;48.374;10.876;2023-03-14T07:32:33;1.30;;;0.40;;
27895;SDS011;15241;48.374;10.876;2023-03-14T07:37:32;0.30;;;0.25;;
27895;SDS011;15241;48.374;10.876;2023-03-14T07:42:31;3.02;;;0.70;;
27895;SDS011;15241;48.374;10.876;2023-03-14T07:47:30;0.75;;;0.20;;
27895;SDS011;15241;48.374;10.876;2023-03-14T07:52:29;0.33;;;0.33;;
27895;SDS011;15241;48.374;10.876;2023-03-14T07:57:28;0.28;;;0.20;;
27895;SDS011;15241;48.374;10.876;2023-03-14T08:02:27;0.17;;;0.17;;
27895;SDS011;15241;48.374;10.876;2023-03-14T08:07:26;0.30;;;0.30;;
27895;SDS011;15241;48.374;10.876;2023-03-14T08:12:27;0.70;;;0.30;;
27895;SDS011;15241;48.374;10.876;2023-03-14T08:17:26;2.05;;;1.20;;
27895;SDS011;15241;48.374;10.876;2023-03-14T08:22:25;0.30;;;0.30;;
27895;SDS011;15241;48.374;10.876;2023-03-14T08:27:24;1.10;;;0.37;;
27895;SDS011;15241;48.374;10.876;2023-03-14T08:32:23;0.40;;;0.37;;
27895;SDS011;15241;48.374;10.876;2023-03-14T08:37:23;0.23;;;0.23;;
27895;SDS011;15241;48.374;10.876;2023-03-14T08:42:22;0.42;;;0.30;;
27895;SDS011;15241;48.374;10.876;2023-03-14T08:47:23;0.40;;;0.25;;
27895;SDS011;15241;48.374;10.876;2023-03-14T08:52:23;0.30;;;0.30;;
27895;SDS011;15241;48.374;10.876;2023-03-14T08:57:22;1.00;;;0.30;;
27895;SDS011;15241;48.374;10.876;2023-03-14T09:02:21;5.15;;;0.45;;
27895;SDS011;15241;48.374;10.876;2023-03-14T09:07:20;1.35;;;0.28;;
27895;SDS011;15241;48.374;10.876;2023-03-14T09:12:19;1.00;;;0.20;;
27895;SDS011;15241;48.374;10.876;2023-03-14T09:17:18;0.90;;;0.53;;
27895;SDS011;15241;48.374;10.876;2023-03-14T09:22:17;0.93;;;0.35;;
27895;SDS011;15241;48.374;10.876;2023-03-14T09:27:16;0.42;;;0.30;;
27895;SDS011;15241;48.374;10.876;2023-03-14T09:32:15;1.65;;;0.35;;
27895;SDS011;15241;48.374;10.876;2023-03-14T09:37:14;13.72;;;1.20;;
27895;SDS011;15241;48.374;10.876;2023-03-14T09:42:14;5.95;;;0.80;;
27895;SDS011;15241;48.374;10.876;2023-03-14T09:47:14;2.15;;;0.28;;
27895;SDS011;15241;48.374;10.876;2023-03-14T09:52:16;1.85;;;0.50;;
27895;SDS011;15241;48.374;10.876;2023-03-14T09:57:18;1.15;;;0.40;;
27895;SDS011;15241;48.374;10.876;2023-03-14T10:02:20;1.47;;;0.30;;
27895;SDS011;15241;48.374;10.876;2023-03-14T10:07:21;2.80;;;0.30;;
27895;SDS011;15241;48.374;10.876;2023-03-14T10:12:23;1.82;;;0.50;;
27895;SDS011;15241;48.374;10.876;2023-03-14T10:17:37;5.25;;;0.70;;
27895;SDS011;15241;48.374;10.876;2023-03-14T10:22:36;1.15;;;0.40;;
27895;SDS011;15241;48.374;10.876;2023-03-14T10:27:35;1.85;;;0.35;;
27895;SDS011;15241;48.374;10.876;2023-03-14T10:32:35;0.33;;;0.33;;
27895;SDS011;15241;48.374;10.876;2023-03-14T10:37:35;3.62;;;0.50;;
27895;SDS011;15241;48.374;10.876;2023-03-14T10:42:39;1.62;;;0.55;;
27895;SDS011;15241;48.374;10.876;2023-03-14T10:47:46;1.00;;;0.40;;
27895;SDS011;15241;48.374;10.876;2023-03-14T10:52:47;1.98;;;0.57;;
27895;SDS011;15241;48.374;10.876;2023-03-14T10:57:47;0.80;;;0.47;;
27895;SDS011;15241;48.374;10.876;2023-03-14T11:02:49;0.68;;;0.35;;
27895;SDS011;15241;48.374;10.876;2023-03-14T11:07:54;2.77;;;0.68;;
27895;SDS011;15241;48.374;10.876;2023-03-14T11:13:00;1.22;;;0.60;;
27895;SDS011;15241;48.374;10.876;2023-03-14T11:18:18;7.00;;;0.80;;
27895;SDS011;15241;48.374;10.876;2023-03-14T11:23:22;2.10;;;0.57;;
27895;SDS011;15241;48.374;10.876;2023-03-14T11:28:24;6.58;;;0.72;;
27895;SDS011;15241;48.374;10.876;2023-03-14T11:33:27;0.30;;;0.30;;
27895;SDS011;15241;48.374;10.876;2023-03-14T11:38:37;0.20;;;0.10;;
27895;SDS011;15241;48.374;10.876;2023-03-14T11:43:39;4.12;;;0.95;;
27895;SDS011;15241;48.374;10.876;2023-03-14T11:48:42;2.70;;;0.50;;
27895;SDS011;15241;48.374;10.876;2023-03-14T11:53:47;7.00;;;0.82;;
27895;SDS011;15241;48.374;10.876;2023-03-14T11:58:53;4.15;;;0.55;;
27895;SDS011;15241;48.374;10.876;2023-03-14T12:03:56;2.75;;;0.50;;
27895;SDS011;15241;48.374;10.876;2023-03-14T12:08:56;0.60;;;0.40;;
27895;SDS011;15241;48.374;10.876;2023-03-14T12:13:59;0.78;;;0.20;;
27895;SDS011;15241;48.374;10.876;2023-03-14T12:19:03;0.98;;;0.10;;
27895;SDS011;15241;48.374;10.876;2023-03-14T12:24:20;8.33;;;1.10;;
27895;SDS011;15241;48.374;10.876;2023-03-14T12:29:20;1.47;;;0.25;;
27895;SDS011;15241;48.374;10.876;2023-03-14T12:34:26;7.37;;;1.55;;
27895;SDS011;15241;48.374;10.876;2023-03-14T12:39:32;1.57;;;0.30;;
27895;SDS011;15241;48.374;10.876;2023-03-14T12:44:42;2.72;;;0.20;;
27895;SDS011;15241;48.374;10.876;2023-03-14T12:49:42;1.05;;;0.30;;
27895;SDS011;15241;48.374;10.876;2023-03-14T12:54:41;0.88;;;0.40;;
27895;SDS011;15241;48.374;10.876;2023-03-14T12:59:46;0.40;;;0.10;;
27895;SDS011;15241;48.374;10.876;2023-03-14T13:04:48;3.85;;;0.60;;
27895;SDS011;15241;48.374;10.876;2023-03-14T13:09:50;5.15;;;1.10;;
27895;SDS011;15241;48.374;10.876;2023-03-14T13:14:52;0.20;;;0.20;;
27895;SDS011;15241;48.374;10.876;2023-03-14T13:19:54;0.20;;;0.20;;
27895;SDS011;15241;48.374;10.876;2023-03-14T13:24:59;0.20;;;0.20;;
27895;SDS011;15241;48.374;10.876;2023-03-14T13:29:59;0.10;;;0.10;;
27895;SDS011;15241;48.374;10.876;2023-03-14T13:35:13;1.05;;;0.20;;
27895;SDS011;15241;48.374;10.876;2023-03-14T13:40:23;4.30;;;0.70;;
27895;SDS011;15241;48.374;10.876;2023-03-14T13:45:26;2.30;;;0.57;;
27895;SDS011;15241;48.374;10.876;2023-03-14T13:50:25;2.45;;;0.60;;
27895;SDS011;15241;48.374;10.876;2023-03-14T13:55:24;1.35;;;0.30;;
27895;SDS011;15241;48.374;10.876;2023-03-14T14:00:24;0.55;;;0.30;;
27895;SDS011;15241;48.374;10.876;2023-03-14T14:05:26;0.33;;;0.20;;
27895;SDS011;15241;48.374;10.876;2023-03-14T14:10:26;2.25;;;0.30;;
27895;SDS011;15241;48.374;10.876;2023-03-14T14:15:28;0.53;;;0.30;;
27895;SDS011;15241;48.374;10.876;2023-03-14T14:20:30;1.47;;;0.20;;
27895;SDS011;15241;48.374;10.876;2023-03-14T14:25:31;1.55;;;0.30;;
27895;SDS011;15241;48.374;10.876;2023-03-14T14:30:32;0.75;;;0.30;;
27895;SDS011;15241;48.374;10.876;2023-03-14T14:35:32;1.52;;;0.75;;
27895;SDS011;15241;48.374;10.876;2023-03-14T14:40:32;8.03;;;0.93;;
27895;SDS011;15241;48.374;10.876;2023-03-14T14:45:33;5.00;;;0.65;;
27895;SDS011;15241;48.374;10.876;2023-03-14T14:50:33;2.77;;;0.50;;
27895;SDS011;15241;48.374;10.876;2023-03-14T14:55:34;2.40;;;0.80;;
27895;SDS011;15241;48.374;10.876;2023-03-14T15:00:49;0.50;;;0.40;;
27895;SDS011;15241;48.374;10.876;2023-03-14T15:10:50;1.87;;;0.60;;
27895;SDS011;15241;48.374;10.876;2023-03-14T15:15:47;1.05;;;0.53;;
27895;SDS011;15241;48.374;10.876;2023-03-14T15:20:47;0.50;;;0.40;;
27895;SDS011;15241;48.374;10.876;2023-03-14T15:25:46;2.00;;;0.50;;
27895;SDS011;15241;48.374;10.876;2023-03-14T15:30:45;1.52;;;0.60;;
27895;SDS011;15241;48.374;10.876;2023-03-14T15:35:45;1.52;;;0.75;;
27895;SDS011;15241;48.374;10.876;2023-03-14T15:40:46;2.55;;;0.90;;
27895;SDS011;15241;48.374;10.876;2023-03-14T15:45:45;2.58;;;0.55;;
27895;SDS011;15241;48.374;10.876;2023-03-14T15:50:44;4.60;;;0.85;;
27895;SDS011;15241;48.374;10.876;2023-03-14T15:55:43;4.83;;;0.70;;
27895;SDS011;15241;48.374;10.876;2023-03-14T16:00:44;1.87;;;0.60;;
27895;SDS011;15241;48.374;10.876;2023-03-14T16:05:43;2.10;;;0.60;;
27895;SDS011;15241;48.374;10.876;2023-03-14T16:10:42;1.90;;;0.70;;
27895;SDS011;15241;48.374;10.876;2023-03-14T16:15:42;2.70;;;0.68;;
27895;SDS011;15241;48.374;10.876;2023-03-14T16:20:59;1.77;;;0.82;;
27895;SDS011;15241;48.374;10.876;2023-03-14T16:26:02;1.07;;;0.40;;
27895;SDS011;15241;48.374;10.876;2023-03-14T16:31:03;1.30;;;0.62;;
27895;SDS011;15241;48.374;10.876;2023-03-14T16:36:04;1.35;;;0.40;;
27895;SDS011;15241;48.374;10.876;2023-03-14T16:41:06;3.50;;;0.60;;
27895;SDS011;15241;48.374;10.876;2023-03-14T16:46:07;3.20;;;0.50;;
27895;SDS011;15241;48.374;10.876;2023-03-14T16:51:10;1.63;;;0.60;;
27895;SDS011;15241;48.374;10.876;2023-03-14T16:56:09;2.83;;;0.60;;
27895;SDS011;15241;48.374;10.876;2023-03-14T17:01:09;4.30;;;0.70;;
27895;SDS011;15241;48.374;10.876;2023-03-14T17:06:12;2.58;;;1.57;;
27895;SDS011;15241;48.374;10.876;2023-03-14T17:11:16;2.92;;;0.95;;
27895;SDS011;15241;48.374;10.876;2023-03-14T17:16:15;3.77;;;1.05;;
27895;SDS011;15241;48.374;10.876;2023-03-14T17:21:14;2.77;;;0.70;;
27895;SDS011;15241;48.374;10.876;2023-03-14T17:26:15;1.15;;;0.70;;
27895;SDS011;15241;48.374;10.876;2023-03-14T17:31:15;3.77;;;0.70;;
27895;SDS011;15241;48.374;10.876;2023-03-14T17:36:15;1.65;;;0.78;;
27895;SDS011;15241;48.374;10.876;2023-03-14T17:41:15;2.08;;;0.98;;
27895;SDS011;15241;48.374;10.876;2023-03-14T17:46:14;2.47;;;1.00;;
27895;SDS011;15241;48.374;10.876;2023-03-14T17:51:13;2.55;;;0.80;;
27895;SDS011;15241;48.374;10.876;2023-03-14T17:56:13;2.35;;;0.80;;
27895;SDS011;15241;48.374;10.876;2023-03-14T18:01:13;2.50;;;1.75;;
27895;SDS011;15241;48.374;10.876;2023-03-14T18:06:14;2.45;;;1.07;;
27895;SDS011;15241;48.374;10.876;2023-03-14T18:11:14;2.50;;;1.20;;
27895;SDS011;15241;48.374;10.876;2023-03-14T18:16:14;6.00;;;1.32;;
27895;SDS011;15241;48.374;10.876;2023-03-14T18:21:15;3.50;;;1.00;;
27895;SDS011;15241;48.374;10.876;2023-03-14T18:26:15;4.70;;;0.98;;
27895;SDS011;15241;48.374;10.876;2023-03-14T18:31:14;2.58;;;1.00;;
27895;SDS011;15241;48.374;10.876;2023-03-14T18:36:13;3.37;;;1.25;;
27895;SDS011;15241;48.374;10.876;2023-03-14T18:41:13;1.65;;;0.85;;
27895;SDS011;15241;48.374;10.876;2023-03-14T18:46:14;3.60;;;0.98;;
27895;SDS011;15241;48.374;10.876;2023-03-14T18:51:15;2.47;;;1.15;;
27895;SDS011;15241;48.374;10.876;2023-03-14T18:56:14;3.17;;;0.95;;
27895;SDS011;15241;48.374;10.876;2023-03-14T19:01:13;4.08;;;1.10;;
27895;SDS011;15241;48.374;10.876;2023-03-14T19:06:12;2.75;;;0.90;;
27895;SDS011;15241;48.374;10.876;2023-03-14T19:11:12;2.52;;;0.90;;
27895;SDS011;15241;48.374;10.876;2023-03-14T19:16:12;1.85;;;0.72;;
27895;SDS011;15241;48.374;10.876;2023-03-14T19:21:12;4.67;;;1.40;;
27895;SDS011;15241;48.374;10.876;2023-03-14T19:26:13;6.90;;;1.50;;
27895;SDS011;15241;48.374;10.876;2023-03-14T19:31:13;6.22;;;2.20;;
27895;SDS011;15241;48.374;10.876;2023-03-14T19:36:18;4.25;;;1.00;;
27895;SDS011;15241;48.374;10.876;2023-03-14T19:41:18;4.28;;;1.57;;
27895;SDS011;15241;48.374;10.876;2023-03-14T19:46:20;3.98;;;1.50;;
27895;SDS011;15241;48.374;10.876;2023-03-14T19:51:20;2.10;;;1.00;;
27895;SDS011;15241;48.374;10.876;2023-03-14T19:56:19;1.37;;;1.00;;
27895;SDS011;15241;48.374;10.876;2023-03-14T20:01:18;2.87;;;1.00;;
27895;SDS011;15241;48.374;10.876;2023-03-14T20:06:19;2.58;;;0.90;;
27895;SDS011;15241;48.374;10.876;2023-03-14T20:11:18;1.98;;;0.90;;
27895;SDS011;15241;48.374;10.876;2023-03-14T20:16:17;3.95;;;0.80;;
27895;SDS011;15241;48.374;10.876;2023-03-14T20:21:16;2.62;;;1.20;;
27895;SDS011;15241;48.374;10.876;2023-03-14T20:26:15;4.53;;;1.25;;
27895;SDS011;15241;48.374;10.876;2023-03-14T20:31:14;3.33;;;1.30;;
27895;SDS011;15241;48.374;10.876;2023-03-14T20:36:13;2.55;;;0.93;;
27895;SDS011;15241;48.374;10.876;2023-03-14T20:41:12;2.55;;;1.15;;
27895;SDS011;15241;48.374;10.876;2023-03-14T20:46:11;2.45;;;1.15;;
27895;SDS011;15241;48.374;10.876;2023-03-14T20:51:10;2.47;;;0.93;;
27895;SDS011;15241;48.374;10.876;2023-03-14T20:56:09;3.52;;;1.22;;
27895;SDS011;15241;48.374;10.876;2023-03-14T21:01:08;3.22;;;1.60;;
27895;SDS011;15241;48.374;10.876;2023-03-14T21:06:08;1.35;;;1.10;;
27895;SDS011;15241;48.374;10.876;2023-03-14T21:11:10;3.08;;;1.55;;
27895;SDS011;15241;48.374;10.876;2023-03-14T21:16:09;2.50;;;1.02;;
27895;SDS011;15241;48.374;10.876;2023-03-14T21:21:08;4.47;;;1.42;;
27895;SDS011;15241;48.374;10.876;2023-03-14T21:26:07;1.75;;;1.00;;
27895;SDS011;15241;48.374;10.876;2023-03-14T21:31:06;3.10;;;1.70;;
27895;SDS011;15241;48.374;10.876;2023-03-14T21:36:07;3.17;;;1.50;;
27895;SDS011;15241;48.374;10.876;2023-03-14T21:41:06;1.32;;;0.95;;
27895;SDS011;15241;48.374;10.876;2023-03-14T21:46:05;2.35;;;1.27;;
27895;SDS011;15241;48.374;10.876;2023-03-14T21:51:04;2.40;;;1.00;;
27895;SDS011;15241;48.374;10.876;2023-03-14T21:56:04;2.47;;;1.05;;
27895;SDS011;15241;48.374;10.876;2023-03-14T22:01:04;1.05;;;0.95;;
27895;SDS011;15241;48.374;10.876;2023-03-14T22:06:04;4.20;;;1.57;;
27895;SDS011;15241;48.374;10.876;2023-03-14T22:11:05;2.52;;;1.50;;
27895;SDS011;15241;48.374;10.876;2023-03-14T22:16:07;1.72;;;1.02;;
27895;SDS011;15241;48.374;10.876;2023-03-14T22:21:06;2.85;;;1.00;;
27895;SDS011;15241;48.374;10.876;2023-03-14T22:26:04;5.35;;;1.15;;
27895;SDS011;15241;48.374;10.876;2023-03-14T22:31:06;2.50;;;1.10;;
27895;SDS011;15241;48.374;10.876;2023-03-14T22:36:08;3.87;;;1.00;;
27895;SDS011;15241;48.374;10.876;2023-03-14T22:41:10;1.87;;;1.00;;
27895;SDS011;15241;48.374;10.876;2023-03-14T22:46:09;5.37;;;0.90;;
27895;SDS011;15241;48.374;10.876;2023-03-14T22:51:08;2.58;;;1.10;;
27895;SDS011;15241;48.374;10.876;2023-03-14T22:56:08;1.70;;;0.90;;
27895;SDS011;15241;48.374;10.876;2023-03-14T23:01:09;3.12;;;0.75;;
27895;SDS011;15241;48.374;10.876;2023-03-14T23:06:16;3.72;;;1.45;;
27895;SDS011;15241;48.374;10.876;2023-03-14T23:11:15;2.92;;;0.70;;
27895;SDS011;15241;48.374;10.876;2023-03-14T23:16:14;2.50;;;1.00;;
27895;SDS011;15241;48.374;10.876;2023-03-14T23:21:14;2.27;;;1.02;;
27895;SDS011;15241;48.374;10.876;2023-03-14T23:26:15;3.85;;;1.30;;
27895;SDS011;15241;48.374;10.876;2023-03-14T23:31:15;5.50;;;1.30;;
27895;SDS011;15241;48.374;10.876;2023-03-14T23:36:14;2.55;;;1.10;;
27895;SDS011;15241;48.374;10.876;2023-03-14T23:41:14;4.22;;;1.12;;
27895;SDS011;15241;48.374;10.876;2023-03-14T23:46:13;4.30;;;1.45;;
27895;SDS011;15241;48.374;10.876;2023-03-14T23:51:13;1.52;;;1.05;;
27895;SDS011;15241;48.374;10.876;2023-03-14T23:56:13;3.45;;;0.90;;
